sensor_id;sensor_type;location;lat;lon;timestamp;temperature;humidity
15048;DHT22;7621;52.350;13.308;2023-03-23T03:57:20;13.40;86.70
15048;DHT22;7621;52.350;13.308;2023-03-23T03:59:45;13.40;87.30
15048;DHT22;7621;52.350;13.308;2023-03-23T04:02:12;13.40;87.40
15048;DHT22;7621;52.350;13.308;2023-03-23T04:04:41;13.30;87.80
15048;DHT22;7621;52.350;13.308;2023-03-23T04:07:08;13.30;88.10
15048;DHT22;7621;52.350;13.308;2023-03-23T04:09:36;13.30;88.50
15048;DHT22;7621;52.350;13.308;2023-03-23T04:12:03;13.30;88.80
15048;DHT22;7621;52.350;13.308;2023-03-23T04:14:29;13.30;88.60
15048;DHT22;7621;52.350;13.308;2023-03-23T04:16:55;13.30;88.90
15048;DHT22;7621;52.350;13.308;2023-03-23T04:19:22;13.30;88.80
15048;DHT22;7621;52.350;13.308;2023-03-23T04:21:48;13.30;88.90
15048;DHT22;7621;52.350;13.308;2023-03-23T04:24:17;13.20;88.80
15048;DHT22;7621;52.350;13.308;2023-03-23T04:26:46;13.20;88.90
15048;DHT22;7621;52.350;13.308;2023-03-23T04:29:12;13.20;89.20
15048;DHT22;7621;52.350;13.308;2023-03-23T04:31:38;13.20;90.10
15048;DHT22;7621;52.350;13.308;2023-03-23T04:34:04;13.20;89.80
15048;DHT22;7621;52.350;13.308;2023-03-23T04:36:30;13.20;90.00
15048;DHT22;7621;52.350;13.308;2023-03-23T04:38:55;13.10;90.10
15048;DHT22;7621;52.350;13.308;2023-03-23T04:41:22;13.10;90.30
15048;DHT22;7621;52.350;13.308;2023-03-23T04:43:48;13.10;90.30
15048;DHT22;7621;52.350;13.308;2023-03-23T04:46:17;13.10;90.30
15048;DHT22;7621;52.350;13.308;2023-03-23T04:48:43;13.00;90.60
15048;DHT22;7621;52.350;13.308;2023-03-23T04:51:09;13.10;90.70
15048;DHT22;7621;52.350;13.308;2023-03-23T04:53:34;13.00;90.70
15048;DHT22;7621;52.350;13.308;2023-03-23T04:56:01;13.00;90.90
15048;DHT22;7621;52.350;13.308;2023-03-23T04:58:27;13.10;90.80
15048;DHT22;7621;52.350;13.308;2023-03-23T05:00:53;13.10;90.90
15048;DHT22;7621;52.350;13.308;2023-03-23T05:03:19;13.10;91.00
15048;DHT22;7621;52.350;13.308;2023-03-23T05:05:46;13.10;91.10
15048;DHT22;7621;52.350;13.308;2023-03-23T05:08:20;13.10;91.10
15048;DHT22;7621;52.350;13.308;2023-03-23T05:10:52;13.10;91.30
15048;DHT22;7621;52.350;13.308;2023-03-23T05:13:18;13.10;91.30
15048;DHT22;7621;52.350;13.308;2023-03-23T05:15:44;13.10;91.20
15048;DHT22;7621;52.350;13.308;2023-03-23T05:18:09;13.10;91.30
15048;DHT22;7621;52.350;13.308;2023-03-23T05:20:36;13.10;91.30
15048;DHT22;7621;52.350;13.308;2023-03-23T05:23:02;13.10;91.40
15048;DHT22;7621;52.350;13.308;2023-03-23T05:25:28;13.10;91.40
15048;DHT22;7621;52.350;13.308;2023-03-23T05:27:54;13.10;91.50
15048;DHT22;7621;52.350;13.308;2023-03-23T05:30:20;13.20;91.70
15048;DHT22;7621;52.350;13.308;2023-03-23T05:32:47;13.10;91.80
15048;DHT22;7621;52.350;13.308;2023-03-23T05:35:17;13.10;92.00
15048;DHT22;7621;52.350;13.308;2023-03-23T05:37:43;13.10;92.30
15048;DHT22;7621;52.350;13.308;2023-03-23T05:40:10;13.10;92.60
15048;DHT22;7621;52.350;13.308;2023-03-23T05:42:38;13.10;92.70
15048;DHT22;7621;52.350;13.308;2023-03-23T05:45:06;13.10;92.80
15048;DHT22;7621;52.350;13.308;2023-03-23T05:47:32;13.10;93.00
15048;DHT22;7621;52.350;13.308;2023-03-23T05:49:58;13.00;93.00
15048;DHT22;7621;52.350;13.308;2023-03-23T05:52:24;13.00;93.20
15048;DHT22;7621;52.350;13.308;2023-03-23T05:54:50;13.00;93.40
15048;DHT22;7621;52.350;13.308;2023-03-23T05:57:16;13.10;93.40
15048;DHT22;7621;52.350;13.308;2023-03-23T05:59:42;13.00;93.60
15048;DHT22;7621;52.350;13.308;2023-03-23T06:02:08;13.10;93.90
15048;DHT22;7621;52.350;13.308;2023-03-23T06:04:35;13.00;94.10
15048;DHT22;7621;52.350;13.308;2023-03-23T06:07:03;13.10;94.40
15048;DHT22;7621;52.350;13.308;2023-03-23T06:09:29;13.00;94.80
15048;DHT22;7621;52.350;13.308;2023-03-23T06:11:55;13.00;95.00
15048;DHT22;7621;52.350;13.308;2023-03-23T06:14:21;13.00;95.40
15048;DHT22;7621;52.350;13.308;2023-03-23T06:16:47;13.00;95.60
15048;DHT22;7621;52.350;13.308;2023-03-23T06:19:13;13.00;96.30
15048;DHT22;7621;52.350;13.308;2023-03-23T06:21:39;13.00;96.20
15048;DHT22;7621;52.350;13.308;2023-03-23T06:24:06;12.90;96.50
15048;DHT22;7621;52.350;13.308;2023-03-23T06:26:34;12.90;97.00
15048;DHT22;7621;52.350;13.308;2023-03-23T06:29:00;12.90;97.30
15048;DHT22;7621;52.350;13.308;2023-03-23T06:31:26;12.90;97.80
15048;DHT22;7621;52.350;13.308;2023-03-23T06:33:52;12.80;98.20
15048;DHT22;7621;52.350;13.308;2023-03-23T06:36:18;12.80;98.70
15048;DHT22;7621;52.350;13.308;2023-03-23T06:38:44;12.80;99.20
15048;DHT22;7621;52.350;13.308;2023-03-23T06:41:10;12.80;99.60
15048;DHT22;7621;52.350;13.308;2023-03-23T06:43:36;12.70;99.90
15048;DHT22;7621;52.350;13.308;2023-03-23T06:46:05;12.70;99.90
15048;DHT22;7621;52.350;13.308;2023-03-23T06:48:30;12.80;99.90
15048;DHT22;7621;52.350;13.308;2023-03-23T06:50:57;12.70;99.90
15048;DHT22;7621;52.350;13.308;2023-03-23T06:53:22;12.80;99.90
15048;DHT22;7621;52.350;13.308;2023-03-23T06:55:49;12.80;99.90
15048;DHT22;7621;52.350;13.308;2023-03-23T06:58:15;12.80;99.90
15048;DHT22;7621;52.350;13.308;2023-03-23T07:00:41;12.90;99.90
15048;DHT22;7621;52.350;13.308;2023-03-23T07:03:07;12.90;99.90
15048;DHT22;7621;52.350;13.308;2023-03-23T07:05:34;13.00;99.90
15048;DHT22;7621;52.350;13.308;2023-03-23T07:08:03;13.10;99.90
15048;DHT22;7621;52.350;13.308;2023-03-23T07:10:29;13.10;99.90
15048;DHT22;7621;52.350;13.308;2023-03-23T07:12:55;13.10;99.90
15048;DHT22;7621;52.350;13.308;2023-03-23T07:15:21;13.20;99.90
15048;DHT22;7621;52.350;13.308;2023-03-23T07:17:47;13.10;99.90
15048;DHT22;7621;52.350;13.308;2023-03-23T07:20:13;13.10;99.90
15048;DHT22;7621;52.350;13.308;2023-03-23T07:22:40;13.10;99.90
15048;DHT22;7621;52.350;13.308;2023-03-23T07:25:06;13.10;99.90
15048;DHT22;7621;52.350;13.308;2023-03-23T07:27:31;13.10;99.90
15048;DHT22;7621;52.350;13.308;2023-03-23T07:29:57;13.10;99.90
15048;DHT22;7621;52.350;13.308;2023-03-23T07:32:23;13.00;99.90
15048;DHT22;7621;52.350;13.308;2023-03-23T07:34:49;13.00;99.90
15048;DHT22;7621;52.350;13.308;2023-03-23T07:37:15;13.00;99.90
15048;DHT22;7621;52.350;13.308;2023-03-23T07:39:41;13.00;99.90
15048;DHT22;7621;52.350;13.308;2023-03-23T07:42:08;13.00;99.90
15048;DHT22;7621;52.350;13.308;2023-03-23T07:44:33;13.10;99.90
15048;DHT22;7621;52.350;13.308;2023-03-23T07:46:59;13.10;99.90
15048;DHT22;7621;52.350;13.308;2023-03-23T07:49:25;13.10;99.90
15048;DHT22;7621;52.350;13.308;2023-03-23T07:51:52;13.20;99.90
15048;DHT22;7621;52.350;13.308;2023-03-23T07:54:17;13.30;99.90
15048;DHT22;7621;52.350;13.308;2023-03-23T07:56:44;13.30;99.90
15048;DHT22;7621;52.350;13.308;2023-03-23T07:59:11;13.40;99.90
15048;DHT22;7621;52.350;13.308;2023-03-23T08:01:38;13.30;99.90
15048;DHT22;7621;52.350;13.308;2023-03-23T08:04:04;13.30;99.90
15048;DHT22;7621;52.350;13.308;2023-03-23T08:06:32;13.40;99.90
15048;DHT22;7621;52.350;13.308;2023-03-23T08:08:58;13.40;99.90
15048;DHT22;7621;52.350;13.308;2023-03-23T08:11:33;13.50;99.90
15048;DHT22;7621;52.350;13.308;2023-03-23T08:13:59;13.50;99.90
15048;DHT22;7621;52.350;13.308;2023-03-23T08:16:24;13.60;99.90
15048;DHT22;7621;52.350;13.308;2023-03-23T08:18:51;13.70;99.90
15048;DHT22;7621;52.350;13.308;2023-03-23T08:21:17;13.90;99.90
15048;DHT22;7621;52.350;13.308;2023-03-23T08:23:43;14.00;99.90
15048;DHT22;7621;52.350;13.308;2023-03-23T08:26:09;14.10;99.90
15048;DHT22;7621;52.350;13.308;2023-03-23T08:28:35;14.10;99.90
15048;DHT22;7621;52.350;13.308;2023-03-23T08:31:10;14.10;99.90
15048;DHT22;7621;52.350;13.308;2023-03-23T08:33:36;14.10;99.90
15048;DHT22;7621;52.350;13.308;2023-03-23T11:26:57;16.80;91.40
15048;DHT22;7621;52.350;13.308;2023-03-23T11:29:25;16.80;91.20
15048;DHT22;7621;52.350;13.308;2023-03-23T11:32:12;16.90;91.10
15048;DHT22;7621;52.350;13.308;2023-03-23T11:34:48;16.80;91.00
15048;DHT22;7621;52.350;13.308;2023-03-23T11:37:25;16.90;90.60
15048;DHT22;7621;52.350;13.308;2023-03-23T11:40:01;16.90;91.00
15048;DHT22;7621;52.350;13.308;2023-03-23T11:42:47;17.10;91.10
15048;DHT22;7621;52.350;13.308;2023-03-23T11:45:24;17.30;90.60
15048;DHT22;7621;52.350;13.308;2023-03-23T11:50:32;17.60;89.70
15048;DHT22;7621;52.350;13.308;2023-03-23T11:53:10;17.70;88.60
15048;DHT22;7621;52.350;13.308;2023-03-23T11:58:17;18.00;88.10
15048;DHT22;7621;52.350;13.308;2023-03-23T12:00:58;18.10;87.80
15048;DHT22;7621;52.350;13.308;2023-03-23T12:06:05;18.20;84.80
15048;DHT22;7621;52.350;13.308;2023-03-23T12:30:58;18.60;81.80
15048;DHT22;7621;52.350;13.308;2023-03-23T12:33:44;18.50;81.50
15048;DHT22;7621;52.350;13.308;2023-03-23T12:39:31;18.40;80.70
15048;DHT22;7621;52.350;13.308;2023-03-23T12:42:33;18.30;81.70
15048;DHT22;7621;52.350;13.308;2023-03-23T12:47:58;18.30;80.70
15048;DHT22;7621;52.350;13.308;2023-03-23T12:50:37;18.30;81.80
15048;DHT22;7621;52.350;13.308;2023-03-23T12:58:32;18.40;80.20
15048;DHT22;7621;52.350;13.308;2023-03-23T13:03:56;18.20;79.60
15048;DHT22;7621;52.350;13.308;2023-03-23T13:06:32;18.20;80.80
15048;DHT22;7621;52.350;13.308;2023-03-23T13:09:32;18.30;79.60
15048;DHT22;7621;52.350;13.308;2023-03-23T13:12:02;18.40;79.70
15048;DHT22;7621;52.350;13.308;2023-03-23T13:17:22;18.70;80.40
15048;DHT22;7621;52.350;13.308;2023-03-23T13:25:54;18.70;78.60
15048;DHT22;7621;52.350;13.308;2023-03-23T13:28:27;18.70;77.40
15048;DHT22;7621;52.350;13.308;2023-03-23T13:33:32;18.60;77.90
15048;DHT22;7621;52.350;13.308;2023-03-23T13:36:10;18.60;77.20
15048;DHT22;7621;52.350;13.308;2023-03-23T13:38:37;18.60;76.90
15048;DHT22;7621;52.350;13.308;2023-03-23T13:41:12;18.60;76.00
15048;DHT22;7621;52.350;13.308;2023-03-23T13:43:40;18.60;75.80
15048;DHT22;7621;52.350;13.308;2023-03-23T13:46:10;18.60;75.60
15048;DHT22;7621;52.350;13.308;2023-03-23T13:49:02;18.50;75.40
15048;DHT22;7621;52.350;13.308;2023-03-23T13:51:34;18.40;75.10
15048;DHT22;7621;52.350;13.308;2023-03-23T13:56:57;18.50;75.60
15048;DHT22;7621;52.350;13.308;2023-03-23T14:01:56;18.60;76.10
15048;DHT22;7621;52.350;13.308;2023-03-23T14:04:30;18.60;76.00
15048;DHT22;7621;52.350;13.308;2023-03-23T14:07:09;18.60;76.00
15048;DHT22;7621;52.350;13.308;2023-03-23T14:09:41;18.60;75.60
15048;DHT22;7621;52.350;13.308;2023-03-23T14:12:17;18.60;75.30
15048;DHT22;7621;52.350;13.308;2023-03-23T14:14:46;18.60;76.00
15048;DHT22;7621;52.350;13.308;2023-03-23T14:17:18;18.50;75.40
15048;DHT22;7621;52.350;13.308;2023-03-23T14:19:50;18.40;75.50
15048;DHT22;7621;52.350;13.308;2023-03-23T14:22:31;18.30;76.20
15048;DHT22;7621;52.350;13.308;2023-03-23T14:25:02;18.20;77.30
15048;DHT22;7621;52.350;13.308;2023-03-23T14:27:35;18.20;77.40
15048;DHT22;7621;52.350;13.308;2023-03-23T14:30:03;18.30;77.10
15048;DHT22;7621;52.350;13.308;2023-03-23T14:32:30;18.30;76.40
15048;DHT22;7621;52.350;13.308;2023-03-23T14:34:57;18.30;75.30
15048;DHT22;7621;52.350;13.308;2023-03-23T14:37:24;18.20;76.10
15048;DHT22;7621;52.350;13.308;2023-03-23T14:39:53;18.10;75.50
15048;DHT22;7621;52.350;13.308;2023-03-23T14:42:28;18.00;76.20
15048;DHT22;7621;52.350;13.308;2023-03-23T14:44:54;17.90;76.30
15048;DHT22;7621;52.350;13.308;2023-03-23T14:47:23;17.80;76.50
15048;DHT22;7621;52.350;13.308;2023-03-23T14:49:55;17.70;76.40
15048;DHT22;7621;52.350;13.308;2023-03-23T14:52:23;17.60;76.40
15048;DHT22;7621;52.350;13.308;2023-03-23T14:54:50;17.50;76.50
15048;DHT22;7621;52.350;13.308;2023-03-23T14:57:18;17.50;76.60
15048;DHT22;7621;52.350;13.308;2023-03-23T14:59:45;17.50;77.10
15048;DHT22;7621;52.350;13.308;2023-03-23T15:04:49;17.60;77.30
15048;DHT22;7621;52.350;13.308;2023-03-23T15:07:15;17.60;77.60
15048;DHT22;7621;52.350;13.308;2023-03-23T15:09:44;17.60;77.90
15048;DHT22;7621;52.350;13.308;2023-03-23T15:12:22;17.60;78.20
15048;DHT22;7621;52.350;13.308;2023-03-23T15:14:51;17.60;78.20
15048;DHT22;7621;52.350;13.308;2023-03-23T15:17:20;17.60;78.50
15048;DHT22;7621;52.350;13.308;2023-03-23T15:19:46;17.60;79.10
15048;DHT22;7621;52.350;13.308;2023-03-23T15:22:24;17.60;79.30
15048;DHT22;7621;52.350;13.308;2023-03-23T15:25:12;17.60;79.40
15048;DHT22;7621;52.350;13.308;2023-03-23T15:27:48;17.70;79.40
15048;DHT22;7621;52.350;13.308;2023-03-23T15:32:51;17.80;78.10
15048;DHT22;7621;52.350;13.308;2023-03-23T15:35:20;17.80;75.20
15048;DHT22;7621;52.350;13.308;2023-03-23T15:37:56;17.70;75.30
15048;DHT22;7621;52.350;13.308;2023-03-23T15:40:23;17.60;74.90
15048;DHT22;7621;52.350;13.308;2023-03-23T15:43:04;17.50;74.70
15048;DHT22;7621;52.350;13.308;2023-03-23T15:45:30;17.50;74.90
15048;DHT22;7621;52.350;13.308;2023-03-23T15:48:04;17.40;75.60
15048;DHT22;7621;52.350;13.308;2023-03-23T15:52:56;17.40;76.90
15048;DHT22;7621;52.350;13.308;2023-03-23T15:55:28;17.30;76.40
15048;DHT22;7621;52.350;13.308;2023-03-23T15:57:56;17.20;77.10
15048;DHT22;7621;52.350;13.308;2023-03-23T16:00:24;17.10;77.70
15048;DHT22;7621;52.350;13.308;2023-03-23T16:03:07;17.10;77.90
15048;DHT22;7621;52.350;13.308;2023-03-23T16:05:34;17.00;78.00
15048;DHT22;7621;52.350;13.308;2023-03-23T16:07:59;17.00;78.40
15048;DHT22;7621;52.350;13.308;2023-03-23T16:10:26;17.00;78.50
15048;DHT22;7621;52.350;13.308;2023-03-23T16:12:52;17.00;77.90
15048;DHT22;7621;52.350;13.308;2023-03-23T16:15:18;17.00;76.90
15048;DHT22;7621;52.350;13.308;2023-03-23T16:17:44;16.90;77.10
15048;DHT22;7621;52.350;13.308;2023-03-23T16:20:21;16.90;77.90
15048;DHT22;7621;52.350;13.308;2023-03-23T16:22:48;16.90;77.80
15048;DHT22;7621;52.350;13.308;2023-03-23T16:25:14;16.90;77.20
15048;DHT22;7621;52.350;13.308;2023-03-23T16:27:41;17.00;76.70
15048;DHT22;7621;52.350;13.308;2023-03-23T16:30:13;16.90;76.60
15048;DHT22;7621;52.350;13.308;2023-03-23T16:32:40;16.90;77.00
15048;DHT22;7621;52.350;13.308;2023-03-23T16:35:05;16.90;77.80
15048;DHT22;7621;52.350;13.308;2023-03-23T16:37:31;17.00;77.00
15048;DHT22;7621;52.350;13.308;2023-03-23T16:39:59;16.90;77.20
15048;DHT22;7621;52.350;13.308;2023-03-23T16:42:24;16.90;77.60
15048;DHT22;7621;52.350;13.308;2023-03-23T16:44:50;16.90;77.70
15048;DHT22;7621;52.350;13.308;2023-03-23T16:47:16;16.80;78.10
15048;DHT22;7621;52.350;13.308;2023-03-23T16:49:43;16.70;78.50
15048;DHT22;7621;52.350;13.308;2023-03-23T16:52:09;16.60;78.80
15048;DHT22;7621;52.350;13.308;2023-03-23T16:54:35;16.50;79.30
15048;DHT22;7621;52.350;13.308;2023-03-23T16:57:00;16.40;79.90
15048;DHT22;7621;52.350;13.308;2023-03-23T16:59:27;16.30;80.20
15048;DHT22;7621;52.350;13.308;2023-03-23T17:01:53;16.20;80.70
15048;DHT22;7621;52.350;13.308;2023-03-23T17:04:18;16.20;81.10
15048;DHT22;7621;52.350;13.308;2023-03-23T17:06:44;16.10;81.40
15048;DHT22;7621;52.350;13.308;2023-03-23T17:09:11;16.10;81.70
15048;DHT22;7621;52.350;13.308;2023-03-23T17:11:36;16.10;81.90
15048;DHT22;7621;52.350;13.308;2023-03-23T17:14:02;16.10;82.20
15048;DHT22;7621;52.350;13.308;2023-03-23T17:16:27;16.10;82.30
15048;DHT22;7621;52.350;13.308;2023-03-23T17:18:53;16.10;82.20
15048;DHT22;7621;52.350;13.308;2023-03-23T17:21:18;16.10;82.50
15048;DHT22;7621;52.350;13.308;2023-03-23T17:23:46;16.10;82.50
15048;DHT22;7621;52.350;13.308;2023-03-23T17:26:12;16.10;82.50
15048;DHT22;7621;52.350;13.308;2023-03-23T17:28:37;16.10;82.70
15048;DHT22;7621;52.350;13.308;2023-03-23T17:31:03;16.10;83.00
15048;DHT22;7621;52.350;13.308;2023-03-23T17:33:30;16.00;83.60
15048;DHT22;7621;52.350;13.308;2023-03-23T17:35:55;16.00;83.60
15048;DHT22;7621;52.350;13.308;2023-03-23T17:38:21;16.00;83.70
15048;DHT22;7621;52.350;13.308;2023-03-23T17:40:47;16.00;84.10
15048;DHT22;7621;52.350;13.308;2023-03-23T17:43:12;16.00;84.40
15048;DHT22;7621;52.350;13.308;2023-03-23T17:45:38;16.00;84.90
15048;DHT22;7621;52.350;13.308;2023-03-23T17:48:05;15.90;85.40
15048;DHT22;7621;52.350;13.308;2023-03-23T17:50:33;15.90;85.70
15048;DHT22;7621;52.350;13.308;2023-03-23T17:52:58;15.80;85.90
15048;DHT22;7621;52.350;13.308;2023-03-23T17:55:25;15.70;86.40
15048;DHT22;7621;52.350;13.308;2023-03-23T17:57:51;15.60;87.00
15048;DHT22;7621;52.350;13.308;2023-03-23T18:00:17;15.60;87.70
15048;DHT22;7621;52.350;13.308;2023-03-23T18:02:42;15.50;88.20
15048;DHT22;7621;52.350;13.308;2023-03-23T18:05:08;15.50;88.90
15048;DHT22;7621;52.350;13.308;2023-03-23T18:07:36;15.40;89.20
15048;DHT22;7621;52.350;13.308;2023-03-23T18:10:02;15.40;89.80
15048;DHT22;7621;52.350;13.308;2023-03-23T18:12:27;15.30;90.00
15048;DHT22;7621;52.350;13.308;2023-03-23T18:14:57;15.20;90.20
15048;DHT22;7621;52.350;13.308;2023-03-23T18:17:23;15.20;90.40
15048;DHT22;7621;52.350;13.308;2023-03-23T18:19:49;15.10;90.50
15048;DHT22;7621;52.350;13.308;2023-03-23T18:22:14;15.10;90.70
15048;DHT22;7621;52.350;13.308;2023-03-23T18:24:40;15.00;90.80
15048;DHT22;7621;52.350;13.308;2023-03-23T18:27:05;15.00;91.00
15048;DHT22;7621;52.350;13.308;2023-03-23T18:29:31;15.00;91.20
15048;DHT22;7621;52.350;13.308;2023-03-23T18:31:57;14.90;91.30
15048;DHT22;7621;52.350;13.308;2023-03-23T18:34:22;14.90;91.60
15048;DHT22;7621;52.350;13.308;2023-03-23T18:36:48;14.90;91.80
15048;DHT22;7621;52.350;13.308;2023-03-23T18:39:14;14.80;92.00
15048;DHT22;7621;52.350;13.308;2023-03-23T18:41:40;14.80;92.10
15048;DHT22;7621;52.350;13.308;2023-03-23T18:44:05;14.80;92.40
15048;DHT22;7621;52.350;13.308;2023-03-23T18:46:31;14.70;92.50
15048;DHT22;7621;52.350;13.308;2023-03-23T18:48:56;14.70;92.70
15048;DHT22;7621;52.350;13.308;2023-03-23T18:51:22;14.70;92.90
15048;DHT22;7621;52.350;13.308;2023-03-23T18:53:48;14.70;93.00
15048;DHT22;7621;52.350;13.308;2023-03-23T18:56:15;14.70;93.20
15048;DHT22;7621;52.350;13.308;2023-03-23T18:58:42;14.70;93.60
15048;DHT22;7621;52.350;13.308;2023-03-23T19:01:10;14.70;93.40
15048;DHT22;7621;52.350;13.308;2023-03-23T19:03:37;14.70;93.50
15048;DHT22;7621;52.350;13.308;2023-03-23T19:06:03;14.60;93.40
15048;DHT22;7621;52.350;13.308;2023-03-23T19:08:30;14.60;93.50
15048;DHT22;7621;52.350;13.308;2023-03-23T19:11:02;14.50;93.50
15048;DHT22;7621;52.350;13.308;2023-03-23T19:13:29;14.50;93.60
15048;DHT22;7621;52.350;13.308;2023-03-23T19:15:55;14.40;93.80
15048;DHT22;7621;52.350;13.308;2023-03-23T19:18:21;14.30;94.00
15048;DHT22;7621;52.350;13.308;2023-03-23T19:20:47;14.30;94.20
15048;DHT22;7621;52.350;13.308;2023-03-23T19:23:16;14.30;94.30
15048;DHT22;7621;52.350;13.308;2023-03-23T19:25:42;14.30;94.40
15048;DHT22;7621;52.350;13.308;2023-03-23T19:28:08;14.20;94.40
15048;DHT22;7621;52.350;13.308;2023-03-23T19:30:33;14.20;94.80
15048;DHT22;7621;52.350;13.308;2023-03-23T19:32:59;14.10;94.60
15048;DHT22;7621;52.350;13.308;2023-03-23T19:35:24;14.00;94.60
15048;DHT22;7621;52.350;13.308;2023-03-23T19:37:50;14.00;94.90
15048;DHT22;7621;52.350;13.308;2023-03-23T19:40:15;14.00;95.00
15048;DHT22;7621;52.350;13.308;2023-03-23T19:42:41;14.00;95.10
15048;DHT22;7621;52.350;13.308;2023-03-23T19:45:07;14.00;95.10
15048;DHT22;7621;52.350;13.308;2023-03-23T19:47:33;13.90;95.10
15048;DHT22;7621;52.350;13.308;2023-03-23T19:49:59;13.90;95.20
15048;DHT22;7621;52.350;13.308;2023-03-23T19:52:25;13.90;95.20
15048;DHT22;7621;52.350;13.308;2023-03-23T19:54:53;13.90;95.20
15048;DHT22;7621;52.350;13.308;2023-03-23T19:57:18;13.90;95.30
15048;DHT22;7621;52.350;13.308;2023-03-23T19:59:46;13.90;95.30
15048;DHT22;7621;52.350;13.308;2023-03-23T20:02:12;13.90;95.30
15048;DHT22;7621;52.350;13.308;2023-03-23T20:04:38;13.90;95.30
15048;DHT22;7621;52.350;13.308;2023-03-23T20:07:04;13.90;95.40
15048;DHT22;7621;52.350;13.308;2023-03-23T20:09:31;13.90;95.40
15048;DHT22;7621;52.350;13.308;2023-03-23T20:11:57;13.90;95.50
15048;DHT22;7621;52.350;13.308;2023-03-23T20:14:22;13.80;95.60
15048;DHT22;7621;52.350;13.308;2023-03-23T20:16:48;13.80;95.60
15048;DHT22;7621;52.350;13.308;2023-03-23T20:19:14;13.70;95.70
15048;DHT22;7621;52.350;13.308;2023-03-23T20:21:40;13.60;95.80
15048;DHT22;7621;52.350;13.308;2023-03-23T20:24:06;13.60;96.00
15048;DHT22;7621;52.350;13.308;2023-03-23T20:26:36;13.50;96.10
